Time;durP1;ratioP1;P1;durP2;ratioP2;P2;SDS_P1;SDS_P2;PMS_P1;PMS_P2;Temp;Humidity;BMP_temperature;BMP_pressure;BME280_temperature;BME280_humidity;BME280_pressure;Samples;Min_cycle;Max_cycle;Signal;HPM_P1;HPM_P2
2022/03/17 00:00:55;;;;;;;55.83;40.50;;;5.10;99.90;;;;;;5078369;28;20257;-75
2022/03/17 00:03:22;;;;;;;54.87;39.73;;;5.10;99.90;;;;;;5077974;28;20235;-75
2022/03/17 00:05:48;;;;;;;53.00;39.17;;;5.10;99.90;;;;;;5077691;28;20667;-74
2022/03/17 00:08:15;;;;;;;51.87;40.20;;;5.10;99.90;;;;;;5077462;28;20197;-75
2022/03/17 00:10:42;;;;;;;52.87;39.33;;;5.20;99.90;;;;;;5077068;28;20234;-75
2022/03/17 00:13:09;;;;;;;51.60;39.30;;;5.10;99.90;;;;;;5074962;28;20324;-75
2022/03/17 00:15:36;;;;;;;50.10;39.00;;;5.10;99.90;;;;;;5074902;28;20201;-75
2022/03/17 00:18:04;;;;;;;50.07;37.93;;;5.10;99.90;;;;;;5074757;28;20197;-75
2022/03/17 00:20:31;;;;;;;54.73;40.10;;;5.00;99.90;;;;;;5074794;28;20225;-74
2022/03/17 00:22:58;;;;;;;50.33;37.93;;;5.10;99.90;;;;;;5074887;28;20201;-75
2022/03/17 00:25:25;;;;;;;54.17;40.07;;;5.00;99.90;;;;;;5074598;28;20204;-75
2022/03/17 00:27:52;;;;;;;54.30;40.27;;;5.10;99.90;;;;;;5074558;28;20196;-75
2022/03/17 00:30:18;;;;;;;54.60;41.20;;;5.10;99.90;;;;;;5074297;28;20568;-75
2022/03/17 00:32:45;;;;;;;51.97;40.47;;;5.10;99.90;;;;;;5074499;28;20201;-75
2022/03/17 00:37:57;;;;;;;53.37;39.60;;;5.00;99.90;;;;;;5074749;28;20199;-75
2022/03/17 00:40:25;;;;;;;51.83;39.80;;;5.00;99.90;;;;;;5074432;28;20711;-76
2022/03/17 00:42:51;;;;;;;54.53;39.47;;;5.00;99.90;;;;;;5075018;28;20201;-74
2022/03/17 00:45:18;;;;;;;54.10;39.90;;;5.00;99.90;;;;;;5075033;28;20287;-74
2022/03/17 00:47:45;;;;;;;53.10;40.33;;;5.00;99.90;;;;;;5075232;28;20212;-74
2022/03/17 00:50:13;;;;;;;51.03;37.80;;;5.00;99.90;;;;;;5075559;28;20657;-75
2022/03/17 00:52:39;;;;;;;50.03;37.00;;;5.00;99.90;;;;;;5076041;28;20201;-75
2022/03/17 00:55:07;;;;;;;51.83;38.73;;;5.10;99.90;;;;;;5075750;28;20619;-75
2022/03/17 00:57:36;;;;;;;47.67;37.47;;;5.10;99.90;;;;;;5077375;28;20205;-76
2022/03/17 01:00:04;;;;;;;50.57;39.33;;;5.10;99.90;;;;;;5076166;28;20232;-76
2022/03/17 01:02:31;;;;;;;46.07;35.53;;;5.10;99.90;;;;;;5075900;28;20217;-75
2022/03/17 01:04:57;;;;;;;47.77;37.00;;;5.00;99.90;;;;;;5075680;28;20274;-76
2022/03/17 01:07:25;;;;;;;49.03;37.93;;;5.00;99.90;;;;;;5074317;28;20197;-76
2022/03/17 01:09:53;;;;;;;50.80;39.33;;;5.00;99.90;;;;;;5074896;28;20542;-76
2022/03/17 01:12:19;;;;;;;47.17;36.63;;;5.00;99.90;;;;;;5074111;28;20298;-75
2022/03/17 01:14:47;;;;;;;51.13;38.57;;;4.90;99.90;;;;;;5074585;28;20657;-76
2022/03/17 01:17:13;;;;;;;50.07;39.30;;;4.90;99.90;;;;;;5075777;28;20196;-75
2022/03/17 01:19:41;;;;;;;49.37;38.43;;;4.90;99.90;;;;;;5075585;28;20227;-76
2022/03/17 01:22:08;;;;;;;53.33;39.47;;;4.90;99.90;;;;;;5075792;28;20197;-76
2022/03/17 01:24:36;;;;;;;50.10;38.87;;;4.90;99.90;;;;;;5075128;28;20199;-76
2022/03/17 01:27:03;;;;;;;53.60;38.60;;;4.90;99.90;;;;;;5075069;28;20254;-76
2022/03/17 01:29:29;;;;;;;49.77;38.47;;;4.90;99.90;;;;;;5074673;28;20197;-76
2022/03/17 01:31:56;;;;;;;48.13;39.23;;;4.90;99.90;;;;;;5075112;28;20201;-76
2022/03/17 01:34:22;;;;;;;52.07;40.47;;;4.90;99.90;;;;;;5074942;28;20243;-75
2022/03/17 01:36:49;;;;;;;54.27;38.83;;;4.90;99.90;;;;;;5074769;28;20263;-76
2022/03/17 01:39:16;;;;;;;51.87;39.07;;;4.80;99.90;;;;;;5074956;28;20203;-75
2022/03/17 01:41:44;;;;;;;53.43;40.20;;;4.80;99.90;;;;;;5075099;28;20228;-76
2022/03/17 01:44:10;;;;;;;53.67;40.10;;;4.80;99.90;;;;;;5081571;28;20202;-75
2022/03/17 01:49:18;;;;;;;52.30;38.60;;;4.90;99.90;;;;;;5079979;28;20192;-75
2022/03/17 01:51:45;;;;;;;52.47;38.80;;;4.90;99.90;;;;;;5080880;28;20655;-75
2022/03/17 01:54:11;;;;;;;49.20;37.87;;;4.90;99.90;;;;;;5080505;28;20230;-75
2022/03/17 01:56:38;;;;;;;50.47;37.80;;;4.90;99.90;;;;;;5080320;28;20247;-76
2022/03/17 01:59:07;;;;;;;48.27;37.23;;;4.90;99.90;;;;;;5080333;28;20200;-75
2022/03/17 02:01:34;;;;;;;47.03;37.53;;;4.90;99.90;;;;;;5079906;28;20281;-75
2022/03/17 02:04:00;;;;;;;48.23;37.90;;;5.00;99.90;;;;;;5079995;28;20203;-75
2022/03/17 02:06:27;;;;;;;53.57;38.10;;;5.00;99.90;;;;;;5079834;28;20207;-75
2022/03/17 02:08:54;;;;;;;46.77;36.87;;;5.00;99.90;;;;;;5081454;28;20203;-75
2022/03/17 02:14:06;;;;;;;49.17;37.40;;;4.90;99.90;;;;;;5081894;28;20203;-75
2022/03/17 02:16:32;;;;;;;49.70;37.27;;;4.90;99.90;;;;;;5080835;28;20227;-75
2022/03/17 02:18:59;;;;;;;48.57;37.93;;;4.90;99.90;;;;;;5081434;28;20243;-76
2022/03/17 02:21:26;;;;;;;52.67;37.73;;;4.90;99.90;;;;;;5081641;28;20228;-75
2022/03/17 02:26:40;;;;;;;50.33;39.93;;;5.00;99.90;;;;;;5082860;28;20659;-75
2022/03/17 02:29:07;;;;;;;49.80;38.47;;;5.00;99.90;;;;;;5083051;28;20259;-75
2022/03/17 02:31:34;;;;;;;52.83;39.40;;;5.10;99.90;;;;;;5082169;28;20210;-75
2022/03/17 02:34:01;;;;;;;50.00;39.57;;;5.10;99.90;;;;;;5082386;28;20197;-74
2022/03/17 02:36:29;;;;;;;50.20;38.23;;;5.10;99.90;;;;;;5083167;28;20242;-75
2022/03/17 02:38:58;;;;;;;51.07;39.43;;;5.20;99.90;;;;;;5084005;28;20220;-74
2022/03/17 02:41:24;;;;;;;51.73;38.73;;;5.20;99.90;;;;;;5084131;28;20304;-76
2022/03/17 02:43:51;;;;;;;49.50;38.87;;;5.20;99.90;;;;;;5082153;28;20204;-76
2022/03/17 02:46:18;;;;;;;50.10;39.03;;;5.10;99.90;;;;;;5082816;28;20648;-75
2022/03/17 02:48:45;;;;;;;51.77;40.63;;;5.20;99.90;;;;;;5083663;28;20197;-75
2022/03/17 02:51:12;;;;;;;48.00;39.13;;;5.20;99.90;;;;;;5085785;28;20193;-76
2022/03/17 02:53:39;;;;;;;49.87;38.30;;;5.20;99.90;;;;;;5085933;28;20201;-76
2022/03/17 02:56:07;;;;;;;50.33;38.77;;;5.10;99.90;;;;;;5083848;28;20200;-76
2022/03/17 02:58:34;;;;;;;48.13;38.67;;;5.10;99.90;;;;;;5085112;28;20254;-76
2022/03/17 03:01:01;;;;;;;52.67;38.90;;;5.00;99.90;;;;;;5084739;28;20319;-75
2022/03/17 03:03:28;;;;;;;52.20;39.67;;;4.90;99.90;;;;;;5083581;28;20198;-76
2022/03/17 03:05:54;;;;;;;52.93;39.07;;;4.90;99.90;;;;;;5081867;28;20602;-76
2022/03/17 03:08:21;;;;;;;48.90;39.90;;;4.90;99.90;;;;;;5082168;28;20205;-75
2022/03/17 03:10:48;;;;;;;51.23;40.17;;;5.00;99.90;;;;;;5081393;28;20193;-74
2022/03/17 03:13:17;;;;;;;51.60;39.43;;;5.10;99.90;;;;;;5079072;28;20232;-75
2022/03/17 03:15:44;;;;;;;50.33;40.10;;;5.10;99.90;;;;;;5078530;28;20235;-74
2022/03/17 03:18:11;;;;;;;48.93;40.03;;;5.00;99.90;;;;;;5078513;28;20197;-76
2022/03/17 03:20:38;;;;;;;50.17;39.63;;;5.00;99.90;;;;;;5078071;28;20220;-75
2022/03/17 03:23:05;;;;;;;49.23;38.97;;;5.00;99.90;;;;;;5079154;28;20204;-75
2022/03/17 03:25:32;;;;;;;49.17;38.07;;;5.10;99.90;;;;;;5078196;28;20197;-75
2022/03/17 03:28:05;;;;;;;48.50;39.87;;;5.00;99.90;;;;;;5078527;28;20201;-75
2022/03/17 03:30:33;;;;;;;51.27;38.87;;;5.10;99.90;;;;;;5079011;28;20200;-75
2022/03/17 03:33:01;;;;;;;49.17;39.47;;;5.10;99.90;;;;;;5078582;28;20251;-76
2022/03/17 03:38:12;;;;;;;49.70;39.53;;;5.10;99.90;;;;;;5078800;28;20266;-75
2022/03/17 03:40:38;;;;;;;50.60;39.80;;;5.10;99.90;;;;;;5079095;28;20236;-76
2022/03/17 03:43:05;;;;;;;49.13;39.37;;;5.20;99.90;;;;;;5079133;28;20197;-76
2022/03/17 03:45:33;;;;;;;49.50;38.87;;;5.20;99.90;;;;;;5078168;28;20231;-76
2022/03/17 03:48:00;;;;;;;47.77;37.90;;;5.20;99.90;;;;;;5078083;28;20201;-76
2022/03/17 03:50:28;;;;;;;49.43;39.03;;;5.20;99.90;;;;;;5059814;28;20205;-75
2022/03/17 03:52:54;;;;;;;51.37;39.13;;;5.20;99.90;;;;;;5078814;28;20556;-75
2022/03/17 03:55:21;;;;;;;49.97;40.03;;;5.30;99.90;;;;;;5078653;28;20209;-75
2022/03/17 03:57:48;;;;;;;47.70;38.50;;;5.30;99.90;;;;;;5077884;28;20201;-76
2022/03/17 04:00:27;;;;;;;48.53;38.10;;;5.20;99.90;;;;;;5076914;28;20193;-76
2022/03/17 04:02:55;;;;;;;49.57;39.23;;;5.20;99.90;;;;;;5076850;28;20280;-75
2022/03/17 04:05:24;;;;;;;52.53;39.40;;;5.20;99.90;;;;;;5076310;28;20739;-76
2022/03/17 04:07:51;;;;;;;51.87;40.57;;;5.20;99.90;;;;;;5076703;28;20232;-76
2022/03/17 04:10:17;;;;;;;53.17;39.50;;;5.10;99.90;;;;;;5076772;28;20198;-76
2022/03/17 04:12:44;;;;;;;48.40;38.27;;;5.20;99.90;;;;;;5076867;28;20200;-75
2022/03/17 04:15:11;;;;;;;51.57;40.20;;;5.10;99.90;;;;;;5076495;28;20588;-78
2022/03/17 04:17:37;;;;;;;50.37;38.37;;;5.20;99.90;;;;;;5075203;28;20205;-76
2022/03/17 04:20:06;;;;;;;50.63;40.23;;;5.10;99.90;;;;;;5074951;28;20197;-76
2022/03/17 04:22:33;;;;;;;49.80;38.97;;;5.10;99.90;;;;;;5074685;28;20683;-77
2022/03/17 04:25:00;;;;;;;50.33;38.93;;;5.10;99.90;;;;;;5074796;28;20618;-76
2022/03/17 04:27:27;;;;;;;50.27;39.13;;;5.10;99.90;;;;;;5074886;28;20205;-76
2022/03/17 04:29:54;;;;;;;47.57;38.37;;;5.10;99.90;;;;;;5074627;28;20714;-76
2022/03/17 04:32:21;;;;;;;50.97;39.00;;;5.10;99.90;;;;;;5074360;28;20228;-76
2022/03/17 04:34:47;;;;;;;49.67;38.63;;;5.10;99.90;;;;;;5074630;28;20197;-76
2022/03/17 04:37:15;;;;;;;51.53;40.87;;;5.10;99.90;;;;;;5074430;28;20201;-76
2022/03/17 04:39:42;;;;;;;48.67;39.10;;;5.10;99.90;;;;;;5073979;28;20233;-75
2022/03/17 04:42:09;;;;;;;54.97;41.77;;;5.10;99.90;;;;;;5073967;28;20221;-77
2022/03/17 04:44:36;;;;;;;50.80;39.33;;;5.10;99.90;;;;;;5074222;28;20649;-76
2022/03/17 04:47:04;;;;;;;50.43;40.33;;;5.10;99.90;;;;;;5074155;28;20228;-75
2022/03/17 04:49:31;;;;;;;52.47;40.30;;;5.10;99.90;;;;;;5074633;28;20201;-73
2022/03/17 04:51:58;;;;;;;51.93;40.43;;;5.10;99.90;;;;;;5074407;28;20223;-75
2022/03/17 04:54:25;;;;;;;51.83;40.97;;;5.10;99.90;;;;;;5074436;28;20604;-75
2022/03/17 04:56:52;;;;;;;52.53;41.13;;;5.10;99.90;;;;;;5074821;28;20250;-74
2022/03/17 04:59:21;;;;;;;53.87;41.97;;;5.10;99.90;;;;;;5077453;28;20197;-76
2022/03/17 05:01:48;;;;;;;52.47;41.63;;;5.10;99.90;;;;;;5078643;28;20703;-75
2022/03/17 05:04:14;;;;;;;54.13;40.10;;;5.00;99.90;;;;;;5079193;28;20652;-77
2022/03/17 05:06:41;;;;;;;51.23;40.10;;;5.00;99.90;;;;;;5078458;28;20581;-75
2022/03/17 05:09:08;;;;;;;57.27;40.77;;;5.00;99.90;;;;;;5074832;28;20200;-75
2022/03/17 05:11:36;;;;;;;53.83;40.70;;;5.00;99.90;;;;;;5074663;28;20289;-75
2022/03/17 05:14:03;;;;;;;59.37;43.57;;;5.00;99.90;;;;;;5074571;28;20193;-75
2022/03/17 05:16:30;;;;;;;51.30;40.47;;;5.00;99.90;;;;;;5074292;28;20288;-74
2022/03/17 05:18:57;;;;;;;51.60;40.97;;;5.00;99.90;;;;;;5074871;28;20193;-75
2022/03/17 05:21:25;;;;;;;57.43;42.53;;;5.00;99.90;;;;;;5074634;28;20227;-75
2022/03/17 05:23:51;;;;;;;56.33;43.17;;;5.00;99.90;;;;;;5075494;28;20211;-75
2022/03/17 05:26:20;;;;;;;58.93;42.77;;;5.00;99.90;;;;;;5075442;28;20200;-75
2022/03/17 05:28:48;;;;;;;56.23;42.07;;;5.00;99.90;;;;;;5076692;28;20193;-75
2022/03/17 05:31:14;;;;;;;59.83;42.77;;;5.00;99.90;;;;;;5080127;28;20258;-76
2022/03/17 05:33:41;;;;;;;56.87;43.80;;;5.00;99.90;;;;;;5080482;28;20193;-76
2022/03/17 05:36:08;;;;;;;61.30;44.30;;;5.00;99.90;;;;;;5081022;28;20729;-76
2022/03/17 05:38:34;;;;;;;59.17;43.93;;;5.00;99.90;;;;;;5080540;28;20197;-76
2022/03/17 05:41:01;;;;;;;58.70;43.87;;;5.00;99.90;;;;;;5080250;28;20639;-76
2022/03/17 05:43:28;;;;;;;65.63;46.67;;;5.00;99.90;;;;;;5061755;28;20243;-75
2022/03/17 05:45:56;;;;;;;63.17;46.50;;;5.00;99.90;;;;;;5082868;28;20243;-75
2022/03/17 05:48:23;;;;;;;63.57;46.20;;;5.00;99.90;;;;;;5082097;28;20181;-75
2022/03/17 05:50:50;;;;;;;68.33;47.30;;;5.00;99.90;;;;;;5078062;28;20216;-75
2022/03/17 05:53:17;;;;;;;66.10;46.57;;;5.00;99.90;;;;;;5085224;28;20230;-75
2022/03/17 05:55:43;;;;;;;66.00;47.10;;;5.10;99.90;;;;;;5095206;28;20196;-75
2022/03/17 05:58:10;;;;;;;56.20;43.40;;;5.10;99.90;;;;;;5095014;28;20192;-75
2022/03/17 06:00:37;;;;;;;56.93;42.37;;;5.10;99.90;;;;;;5095100;28;20224;-75
2022/03/17 06:03:05;;;;;;;59.67;43.93;;;5.10;99.90;;;;;;5096785;28;20251;-75
2022/03/17 06:05:32;;;;;;;57.63;42.53;;;5.10;99.90;;;;;;5095461;28;20267;-76
2022/03/17 06:08:00;;;;;;;60.83;45.53;;;5.20;99.90;;;;;;5094782;28;20274;-75
2022/03/17 06:10:29;;;;;;;61.47;43.60;;;5.20;99.90;;;;;;5086380;28;20207;-75
2022/03/17 06:12:57;;;;;;;59.90;45.03;;;5.30;99.90;;;;;;5089806;28;20587;-75
2022/03/17 06:15:24;;;;;;;59.93;43.53;;;5.30;99.90;;;;;;5095640;28;20193;-75
2022/03/17 06:17:52;;;;;;;64.57;46.13;;;5.40;99.90;;;;;;5095863;28;20196;-76
2022/03/17 06:20:22;;;;;;;56.93;41.97;;;5.40;99.90;;;;;;5095691;28;20245;-77
2022/03/17 06:22:51;;;;;;;59.60;43.10;;;5.50;99.90;;;;;;5095221;28;20772;-78
2022/03/17 06:25:21;;;;;;;57.60;44.37;;;5.60;99.90;;;;;;5085213;28;20288;-76
2022/03/17 06:27:49;;;;;;;54.70;43.17;;;5.60;99.90;;;;;;5074316;28;20196;-76
2022/03/17 06:30:17;;;;;;;58.23;43.27;;;5.70;99.90;;;;;;5076553;28;20201;-75
2022/03/17 06:32:45;;;;;;;60.07;42.47;;;5.80;99.90;;;;;;5081545;28;20219;-86
2022/03/17 06:35:17;;;;;;;50.73;39.33;;;5.90;99.90;;;;;;5059303;28;20203;-76
2022/03/17 06:37:46;;;;;;;52.73;41.03;;;5.90;99.90;;;;;;5076278;28;20201;-78
2022/03/17 06:40:14;;;;;;;51.30;38.93;;;6.00;99.90;;;;;;5075885;28;20225;-77
2022/03/17 06:42:40;;;;;;;53.60;40.47;;;6.00;99.90;;;;;;5076124;28;20225;-76
2022/03/17 06:45:08;;;;;;;51.70;39.67;;;6.10;99.90;;;;;;5075856;28;20193;-76
2022/03/17 06:47:35;;;;;;;50.93;38.20;;;6.10;99.90;;;;;;5075848;28;20201;-76
2022/03/17 06:50:02;;;;;;;50.67;40.23;;;6.20;99.90;;;;;;5075789;28;20208;-76
2022/03/17 06:52:29;;;;;;;51.93;39.80;;;6.20;99.90;;;;;;5075755;28;20301;-76
2022/03/17 06:54:57;;;;;;;54.47;39.33;;;6.30;99.90;;;;;;5075506;28;20243;-76
2022/03/17 06:57:24;;;;;;;50.67;39.63;;;6.40;99.90;;;;;;5075775;28;20204;-74
2022/03/17 06:59:51;;;;;;;47.73;38.80;;;6.40;99.90;;;;;;5075352;28;20572;-75
2022/03/17 07:02:19;;;;;;;51.93;39.60;;;6.40;99.90;;;;;;5075289;28;20243;-77
2022/03/17 07:04:46;;;;;;;50.00;37.90;;;6.50;99.90;;;;;;5075611;28;20197;-74
2022/03/17 07:07:12;;;;;;;53.63;39.90;;;6.60;99.90;;;;;;5075553;28;20252;-76
2022/03/17 07:09:41;;;;;;;48.83;39.10;;;6.60;99.90;;;;;;5075417;28;20255;-75
2022/03/17 07:12:10;;;;;;;51.67;39.83;;;6.70;99.90;;;;;;5075418;28;20200;-75
2022/03/17 07:14:37;;;;;;;49.90;39.97;;;6.80;99.90;;;;;;5075047;28;20653;-75
2022/03/17 07:17:04;;;;;;;51.57;40.33;;;6.80;99.90;;;;;;5075383;28;20287;-76
2022/03/17 07:19:31;;;;;;;53.03;39.00;;;6.90;99.90;;;;;;5074974;28;20197;-76
2022/03/17 07:21:58;;;;;;;48.30;37.93;;;7.00;99.90;;;;;;5075093;28;20695;-76
2022/03/17 07:24:25;;;;;;;51.73;38.00;;;7.00;99.90;;;;;;5075135;28;20327;-75
2022/03/17 07:26:51;;;;;;;47.70;38.67;;;7.00;99.90;;;;;;5074970;28;20198;-76
2022/03/17 07:29:19;;;;;;;48.67;38.53;;;7.10;99.90;;;;;;5075014;28;20201;-77
2022/03/17 07:31:46;;;;;;;49.73;37.27;;;7.20;99.90;;;;;;5075105;28;20209;-77
2022/03/17 07:34:13;;;;;;;46.17;38.17;;;7.20;99.90;;;;;;5075000;28;20204;-75
2022/03/17 07:36:40;;;;;;;47.33;37.37;;;7.30;99.90;;;;;;5074964;28;20334;-75
2022/03/17 07:39:07;;;;;;;49.47;39.53;;;7.40;99.90;;;;;;5074803;28;20193;-75
2022/03/17 07:41:34;;;;;;;50.17;39.87;;;7.50;99.90;;;;;;5073827;28;20270;-75
2022/03/17 07:44:00;;;;;;;47.37;38.70;;;7.60;99.90;;;;;;5074401;28;20200;-74
2022/03/17 07:46:28;;;;;;;48.67;39.73;;;7.70;99.90;;;;;;5074823;28;20203;-75
2022/03/17 07:48:55;;;;;;;45.57;38.63;;;7.90;99.90;;;;;;5074454;28;20652;-75
2022/03/17 07:51:22;;;;;;;49.27;36.83;;;7.90;99.90;;;;;;5074389;28;20649;-75
2022/03/17 07:53:48;;;;;;;46.80;38.87;;;8.00;99.90;;;;;;5074599;28;20197;-76
2022/03/17 07:56:18;;;;;;;46.70;37.17;;;8.00;99.90;;;;;;5074464;28;20250;-75
2022/03/17 07:58:45;;;;;;;42.50;36.53;;;8.10;99.90;;;;;;5074840;28;20201;-75
2022/03/17 08:01:12;;;;;;;43.73;36.03;;;8.30;99.90;;;;;;5074445;28;20238;-76
2022/03/17 08:03:41;;;;;;;49.73;39.27;;;8.30;99.90;;;;;;5074220;28;20703;-76
2022/03/17 08:06:08;;;;;;;44.73;36.97;;;8.40;99.90;;;;;;5074289;28;20209;-76
2022/03/17 08:08:35;;;;;;;44.90;37.60;;;8.40;99.90;;;;;;5074122;28;20652;-76
2022/03/17 08:11:01;;;;;;;46.83;38.50;;;8.50;99.90;;;;;;5074040;28;20288;-76
2022/03/17 08:13:28;;;;;;;45.70;37.77;;;8.60;99.90;;;;;;5074004;28;20644;-75
2022/03/17 08:15:55;;;;;;;43.13;37.90;;;8.60;99.90;;;;;;5074048;28;20193;-76
2022/03/17 08:18:22;;;;;;;46.00;37.67;;;8.70;99.90;;;;;;5074039;28;20240;-74
2022/03/17 08:20:50;;;;;;;42.77;36.53;;;8.70;99.90;;;;;;5073720;28;20304;-74
2022/03/17 08:23:21;;;;;;;44.50;37.67;;;8.80;99.90;;;;;;5073693;28;20220;-75
2022/03/17 08:25:48;;;;;;;44.93;38.50;;;8.90;99.90;;;;;;5073674;28;20222;-75
2022/03/17 08:28:17;;;;;;;44.40;36.87;;;9.00;99.90;;;;;;5073846;28;20207;-76
2022/03/17 08:30:46;;;;;;;48.33;39.50;;;9.00;99.90;;;;;;5073819;28;20200;-75
2022/03/17 08:33:12;;;;;;;41.33;36.50;;;9.10;99.90;;;;;;5073838;28;20201;-76
2022/03/17 08:35:40;;;;;;;41.97;36.10;;;9.20;99.90;;;;;;5073715;28;20242;-76
2022/03/17 08:38:08;;;;;;;42.10;36.33;;;9.20;99.90;;;;;;5073429;28;20683;-75
2022/03/17 08:40:35;;;;;;;44.23;37.67;;;9.00;99.90;;;;;;5073346;28;20225;-75
2022/03/17 08:43:02;;;;;;;46.97;38.47;;;9.30;99.90;;;;;;5073362;28;20228;-75
2022/03/17 08:50:57;;;;;;;43.30;37.10;;;9.40;99.90;;;;;;5073224;28;20204;-75
2022/03/17 08:53:25;;;;;;;42.83;36.57;;;9.30;99.90;;;;;;5072755;28;20205;-75
2022/03/17 08:55:52;;;;;;;42.93;36.77;;;9.40;99.90;;;;;;5073351;28;20197;-76
2022/03/17 08:58:19;;;;;;;42.53;36.40;;;9.50;99.90;;;;;;5073692;28;20296;-75
2022/03/17 09:00:46;;;;;;;47.57;37.07;;;9.50;99.90;;;;;;5073195;28;20731;-75
2022/03/17 09:03:13;;;;;;;42.60;35.87;;;9.30;99.90;;;;;;5072934;28;20645;-75
2022/03/17 09:05:41;;;;;;;44.67;37.90;;;9.30;99.90;;;;;;5073292;28;20246;-75
2022/03/17 09:08:08;;;;;;;45.83;36.83;;;9.30;99.90;;;;;;5073275;28;20193;-75
2022/03/17 09:10:38;;;;;;;41.20;36.07;;;9.40;99.90;;;;;;5072997;28;20721;-76
2022/03/17 09:13:07;;;;;;;46.63;36.80;;;9.50;99.90;;;;;;5073006;28;20200;-76
2022/03/17 09:15:36;;;;;;;45.27;36.87;;;9.50;99.90;;;;;;5072991;28;20236;-75
2022/03/17 09:18:03;;;;;;;44.10;36.00;;;9.50;99.90;;;;;;5073004;28;20207;-76
2022/03/17 09:20:29;;;;;;;42.67;36.43;;;9.40;99.90;;;;;;5073050;28;20201;-75
2022/03/17 09:22:56;;;;;;;41.00;36.50;;;9.50;99.90;;;;;;5072917;28;20630;-75
2022/03/17 09:25:25;;;;;;;44.33;37.20;;;9.60;99.90;;;;;;5072912;28;20197;-76
2022/03/17 09:27:53;;;;;;;41.90;37.07;;;9.60;99.90;;;;;;5072782;28;20201;-75
2022/03/17 09:30:20;;;;;;;43.23;37.30;;;9.60;99.90;;;;;;5072890;28;20242;-75
2022/03/17 09:32:47;;;;;;;42.20;36.80;;;9.60;99.90;;;;;;5072872;28;20201;-76
2022/03/17 09:35:15;;;;;;;44.33;36.23;;;9.60;99.90;;;;;;5072883;28;20259;-75
2022/03/17 09:37:42;;;;;;;42.83;36.50;;;9.60;99.90;;;;;;5072766;28;20201;-76
2022/03/17 09:40:10;;;;;;;49.03;36.90;;;9.70;99.90;;;;;;5072464;28;20691;-75
2022/03/17 09:42:38;;;;;;;43.17;37.03;;;9.70;99.90;;;;;;5072432;28;20607;-75
2022/03/17 09:45:09;;;;;;;43.03;37.03;;;9.70;99.90;;;;;;5072502;28;20201;-75
2022/03/17 09:47:38;;;;;;;45.07;36.73;;;9.80;99.90;;;;;;5072699;28;20204;-75
2022/03/17 09:50:07;;;;;;;46.23;36.00;;;10.00;99.90;;;;;;5072655;28;20193;-75
2022/03/17 09:52:36;;;;;;;40.27;35.97;;;10.00;99.90;;;;;;5072468;28;20207;-75
2022/03/17 09:55:04;;;;;;;42.70;34.27;;;9.90;99.90;;;;;;5072450;28;20201;-76
2022/03/17 09:57:32;;;;;;;41.23;35.83;;;9.60;99.90;;;;;;5072856;28;20200;-76
2022/03/17 09:59:58;;;;;;;46.83;36.53;;;9.60;99.90;;;;;;5072455;28;20197;-75
2022/03/17 10:02:27;;;;;;;42.53;36.93;;;9.80;99.90;;;;;;5072471;28;20220;-75
2022/03/17 10:04:53;;;;;;;41.37;35.53;;;9.90;99.90;;;;;;5076085;28;20209;-75
2022/03/17 10:07:22;;;;;;;42.37;36.10;;;9.90;99.90;;;;;;5076389;28;20197;-75
2022/03/17 10:09:49;;;;;;;45.97;36.07;;;9.90;99.90;;;;;;5076320;28;20192;-74
2022/03/17 10:12:18;;;;;;;42.73;35.93;;;10.10;99.90;;;;;;5076518;28;20254;-75
2022/03/17 10:14:47;;;;;;;50.70;36.53;;;10.10;99.90;;;;;;5076583;28;20207;-75
2022/03/17 10:20:16;;;;;;;39.87;34.43;;;10.30;99.90;;;;;;5110737;27;20544;-75
2022/03/17 10:22:45;;;;;;;46.73;35.60;;;10.10;99.90;;;;;;5110690;28;20202;-75
2022/03/17 10:25:15;;;;;;;42.87;35.63;;;10.00;99.90;;;;;;5110775;28;20196;-75
2022/03/17 10:27:45;;;;;;;43.23;35.30;;;9.80;99.90;;;;;;5110698;28;20697;-76
2022/03/17 10:30:12;;;;;;;43.83;35.90;;;9.80;99.90;;;;;;5110497;28;20651;-75
2022/03/17 10:32:39;;;;;;;42.17;36.03;;;9.70;99.90;;;;;;5110576;28;20196;-75
2022/03/17 10:35:08;;;;;;;43.67;36.30;;;9.70;99.90;;;;;;5110657;28;20221;-76
2022/03/17 10:37:37;;;;;;;44.43;35.13;;;9.80;99.90;;;;;;5110703;28;20204;-75
2022/03/17 10:40:10;;;;;;;42.63;34.33;;;9.90;99.90;;;;;;5110242;28;20679;-76
2022/03/17 10:42:38;;;;;;;40.30;35.30;;;10.00;99.90;;;;;;5110401;28;20226;-75
2022/03/17 10:45:07;;;;;;;45.53;35.20;;;10.10;99.90;;;;;;5110210;28;20196;-76
2022/03/17 10:47:36;;;;;;;40.57;35.30;;;10.10;99.90;;;;;;5110562;28;20199;-75
2022/03/17 10:50:16;;;;;;;44.97;34.90;;;10.20;99.90;;;;;;5110470;28;20202;-76
2022/03/17 10:52:49;;;;;;;44.23;35.10;;;10.20;99.90;;;;;;5110333;28;20200;-75
2022/03/17 10:55:19;;;;;;;46.23;35.87;;;10.30;99.90;;;;;;5110144;28;20195;-75
2022/03/17 10:57:45;;;;;;;44.47;35.67;;;10.20;99.90;;;;;;5109950;28;20650;-76
2022/03/17 11:00:20;;;;;;;41.27;34.50;;;10.20;99.90;;;;;;5110228;28;20231;-75
2022/03/17 11:02:48;;;;;;;42.13;33.47;;;10.30;99.90;;;;;;5110136;28;20274;-76
2022/03/17 11:05:16;;;;;;;37.10;31.90;;;10.40;99.90;;;;;;5110075;28;20223;-75
2022/03/17 11:07:45;;;;;;;43.87;33.80;;;10.50;99.90;;;;;;5109942;28;20200;-75
2022/03/17 11:10:16;;;;;;;37.77;33.13;;;10.50;99.90;;;;;;5109763;28;20199;-75
2022/03/17 11:12:43;;;;;;;36.70;32.60;;;10.50;99.90;;;;;;5110073;28;20200;-75
2022/03/17 11:15:10;;;;;;;39.70;33.60;;;10.50;99.90;;;;;;5109958;28;20222;-75
2022/03/17 11:17:40;;;;;;;39.00;33.47;;;10.40;99.90;;;;;;5109778;28;20195;-74
2022/03/17 11:20:08;;;;;;;40.97;32.80;;;10.30;99.90;;;;;;5109633;28;20228;-76
2022/03/17 11:22:36;;;;;;;35.53;31.37;;;10.50;99.90;;;;;;5109542;28;20204;-75
2022/03/17 11:25:23;;;;;;;39.03;32.43;;;10.70;99.90;;;;;;5109730;28;20210;-75
2022/03/17 11:27:51;;;;;;;39.07;32.43;;;10.80;99.90;;;;;;5109535;28;20200;-75
2022/03/17 11:30:18;;;;;;;36.20;30.30;;;10.90;99.90;;;;;;5102622;28;20197;-75
2022/03/17 11:32:51;;;;;;;35.87;31.60;;;11.00;99.90;;;;;;5095777;28;20203;-76
2022/03/17 11:35:19;;;;;;;36.47;30.97;;;11.00;99.90;;;;;;5095836;28;20196;-75
2022/03/17 11:37:46;;;;;;;40.10;32.43;;;11.20;99.90;;;;;;5095782;28;20193;-75
2022/03/17 11:40:14;;;;;;;37.37;32.33;;;11.10;99.90;;;;;;5095505;28;20228;-75
2022/03/17 11:42:46;;;;;;;36.27;30.37;;;10.70;99.90;;;;;;5095671;28;20296;-75
2022/03/17 11:45:42;;;;;;;34.73;31.00;;;11.00;99.90;;;;;;5095524;28;20196;-76
2022/03/17 11:48:12;;;;;;;36.60;31.10;;;10.90;99.90;;;;;;5095589;28;20200;-75
2022/03/17 11:50:42;;;;;;;33.30;29.70;;;10.90;99.90;;;;;;5095550;28;20537;-76
2022/03/17 11:53:19;;;;;;;33.50;29.90;;;11.00;99.90;;;;;;5095512;28;20209;-75
2022/03/17 11:55:56;;;;;;;39.63;32.33;;;11.00;99.90;;;;;;5095149;28;20290;-76
2022/03/17 11:58:31;;;;;;;34.47;30.20;;;11.30;99.90;;;;;;5095437;28;20200;-76
2022/03/17 12:01:06;;;;;;;36.00;29.67;;;11.10;99.90;;;;;;5095429;28;20218;-75
2022/03/17 12:03:38;;;;;;;37.53;30.77;;;11.00;99.90;;;;;;5095101;28;20192;-75
2022/03/17 12:06:09;;;;;;;34.43;30.53;;;11.00;99.90;;;;;;5095058;28;20200;-76
2022/03/17 12:08:38;;;;;;;35.13;31.00;;;11.20;99.90;;;;;;5095168;28;20208;-75
2022/03/17 12:11:08;;;;;;;37.40;30.73;;;11.60;99.90;;;;;;5093722;28;20558;-75
2022/03/17 12:13:36;;;;;;;36.23;30.93;;;11.70;99.90;;;;;;5095148;28;20204;-75
2022/03/17 12:16:04;;;;;;;35.03;29.00;;;11.50;99.90;;;;;;5094944;28;20246;-75
2022/03/17 12:18:51;;;;;;;32.40;28.93;;;11.40;99.90;;;;;;5094645;28;20229;-75
2022/03/17 12:21:17;;;;;;;35.47;30.20;;;11.20;99.90;;;;;;5094754;28;20203;-75
2022/03/17 12:23:49;;;;;;;34.30;30.17;;;10.90;99.90;;;;;;5094827;28;20200;-76
2022/03/17 12:26:20;;;;;;;34.07;30.40;;;11.30;99.90;;;;;;5094874;28;20196;-76
2022/03/17 12:28:48;;;;;;;35.57;29.67;;;11.30;99.90;;;;;;5094838;28;20207;-75
2022/03/17 12:31:15;;;;;;;38.30;30.10;;;11.50;99.90;;;;;;5094619;28;20245;-75
2022/03/17 12:33:44;;;;;;;37.40;30.73;;;11.70;99.90;;;;;;5094503;28;20674;-76
2022/03/17 12:36:14;;;;;;;33.67;29.93;;;11.70;99.90;;;;;;5094719;28;20193;-76
2022/03/17 12:38:41;;;;;;;34.43;30.20;;;11.70;99.90;;;;;;5094527;28;20224;-76
2022/03/17 12:41:13;;;;;;;40.00;30.90;;;11.70;99.90;;;;;;5094070;28;20196;-76
2022/03/17 12:43:40;;;;;;;36.93;29.27;;;11.60;99.90;;;;;;5094025;28;20269;-75
2022/03/17 12:46:08;;;;;;;32.83;29.03;;;11.60;99.90;;;;;;5094446;28;20211;-75
2022/03/17 12:48:35;;;;;;;33.37;29.80;;;11.70;99.90;;;;;;5094772;28;20207;-76
2022/03/17 12:51:07;;;;;;;35.97;31.47;;;11.50;99.90;;;;;;5094452;28;20196;-76
2022/03/17 12:53:35;;;;;;;36.13;31.50;;;11.60;99.90;;;;;;5094445;28;20609;-76
2022/03/17 12:56:02;;;;;;;37.03;32.17;;;11.70;99.90;;;;;;5094259;28;20196;-76
2022/03/17 12:58:29;;;;;;;36.13;30.03;;;11.80;99.90;;;;;;5093952;28;20200;-76
2022/03/17 13:00:55;;;;;;;33.93;30.47;;;11.80;99.90;;;;;;5094196;28;20200;-76